createdAt,value
2022-12-01T05:30:54.671Z,5.53
2022-12-01T05:31:54.750Z,5.59
2022-12-01T05:32:54.632Z,5.63
2022-12-01T05:33:54.620Z,5.63
2022-12-01T05:34:54.599Z,5.63
2022-12-01T05:35:54.609Z,5.64
2022-12-01T05:36:54.569Z,5.63
2022-12-01T05:37:54.568Z,5.66
2022-12-01T05:38:54.582Z,5.66
2022-12-01T05:39:54.549Z,5.67
2022-12-01T05:40:54.687Z,5.67
2022-12-01T05:41:54.509Z,5.67
2022-12-01T05:42:54.499Z,5.68
2022-12-01T05:43:54.495Z,5.70
2022-12-01T05:44:54.468Z,5.67
2022-12-01T05:45:54.660Z,5.66
2022-12-01T05:46:54.458Z,5.66
2022-12-01T05:47:54.437Z,5.63
2022-12-01T05:48:54.442Z,5.64
2022-12-01T05:49:54.413Z,5.63
2022-12-01T05:50:54.406Z,5.66
2022-12-01T05:51:54.387Z,5.66
2022-12-01T05:52:54.357Z,5.66
2022-12-01T05:53:54.346Z,5.64
2022-12-01T05:54:54.344Z,5.64
2022-12-01T05:55:54.357Z,5.59
2022-12-01T05:56:54.305Z,5.63
2022-12-01T05:57:54.303Z,5.63
2022-12-01T05:58:54.283Z,5.59
2022-12-01T05:59:54.275Z,5.59
2022-12-01T06:00:54.275Z,5.63
2022-12-01T06:01:54.349Z,5.64
2022-12-01T06:02:54.225Z,5.66
2022-12-01T06:03:54.238Z,5.60
2022-12-01T06:04:54.205Z,5.63
2022-12-01T06:05:54.204Z,5.60
2022-12-01T06:06:54.191Z,5.59
2022-12-01T06:07:54.234Z,5.60
2022-12-01T06:08:54.143Z,5.59
2022-12-01T06:09:54.133Z,5.57
2022-12-01T06:10:54.146Z,5.59
2022-12-01T06:11:54.113Z,5.56
2022-12-01T06:12:54.100Z,5.55
2022-12-01T06:13:54.084Z,5.53
2022-12-01T06:14:54.070Z,5.52
2022-12-01T06:15:54.062Z,5.53
2022-12-01T06:16:54.076Z,5.53
2022-12-01T06:17:54.031Z,5.56
2022-12-01T06:18:54.013Z,5.59
2022-12-01T06:19:54.003Z,5.57
2022-12-01T06:20:54.003Z,5.59
2022-12-01T06:21:53.971Z,5.56
2022-12-01T06:22:53.971Z,5.56
2022-12-01T06:23:53.950Z,5.56
2022-12-01T06:24:53.950Z,5.57
2022-12-01T06:25:53.939Z,5.57
2022-12-01T06:26:53.910Z,5.56
2022-12-01T06:27:53.890Z,5.56
2022-12-01T06:28:53.880Z,5.56
2022-12-01T06:29:54.073Z,5.57
2022-12-01T06:30:57.947Z,5.57
2022-12-01T06:31:54.876Z,5.57
2022-12-01T06:32:53.840Z,5.57
2022-12-01T06:33:53.817Z,5.57
2022-12-01T06:34:53.809Z,5.59
2022-12-01T06:35:53.790Z,5.59
2022-12-01T06:36:53.788Z,5.74
2022-12-01T06:37:53.766Z,6.28
2022-12-01T06:38:53.751Z,6.58
2022-12-01T06:39:53.736Z,6.61
2022-12-01T06:40:53.735Z,6.61
2022-12-01T06:41:53.802Z,6.66
2022-12-01T06:42:53.717Z,6.81
2022-12-01T06:43:53.682Z,6.97
2022-12-01T06:44:53.685Z,7.01
2022-12-01T06:45:59.464Z,6.86
2022-12-01T06:46:54.660Z,6.79
2022-12-01T06:47:53.630Z,6.83
2022-12-01T06:48:53.626Z,6.89
2022-12-01T06:49:53.609Z,6.87
2022-12-01T06:50:53.599Z,7.04
2022-12-01T06:51:53.594Z,7.16
2022-12-01T06:52:53.573Z,7.13
2022-12-01T06:53:53.555Z,7.23
2022-12-01T06:54:53.547Z,7.44
2022-12-01T06:55:53.551Z,7.59
2022-12-01T06:56:53.524Z,7.50
2022-12-01T06:57:53.504Z,7.47
2022-12-01T06:58:53.527Z,7.56
2022-12-01T06:59:53.484Z,7.63
2022-12-01T07:00:53.489Z,7.53
2022-12-01T07:01:53.524Z,7.40
2022-12-01T07:02:53.472Z,7.37
2022-12-01T07:03:53.434Z,7.15
2022-12-01T07:04:53.414Z,7.02
2022-12-01T07:05:53.394Z,6.87
2022-12-01T07:06:53.444Z,6.83
2022-12-01T07:07:59.154Z,6.80
2022-12-01T07:08:54.363Z,6.90
2022-12-01T07:09:53.373Z,6.95
2022-12-01T07:10:53.335Z,7.04
2022-12-01T07:11:53.374Z,7.41
2022-12-01T07:12:53.302Z,7.31
2022-12-01T07:13:53.315Z,7.15
2022-12-01T07:14:53.293Z,7.20
2022-12-01T07:15:53.292Z,7.23
2022-12-01T07:16:53.363Z,7.23
2022-12-01T07:17:53.262Z,7.24
2022-12-01T07:18:53.252Z,7.34
2022-12-01T07:19:53.212Z,7.58
2022-12-01T07:20:53.202Z,7.71
2022-12-01T07:21:53.200Z,7.75
2022-12-01T07:22:53.190Z,7.72
2022-12-01T07:23:53.162Z,7.63
2022-12-01T07:24:53.153Z,7.63
2022-12-01T07:25:53.142Z,7.72
2022-12-01T07:26:53.139Z,7.78
2022-12-01T07:27:53.108Z,7.77
2022-12-01T07:28:53.104Z,7.99
2022-12-01T07:29:53.080Z,8.21
2022-12-01T07:30:53.131Z,8.51
2022-12-01T07:31:53.072Z,8.39
2022-12-01T07:32:53.051Z,8.22
2022-12-01T07:33:53.029Z,8.36
2022-12-01T07:34:53.057Z,8.58
2022-12-01T07:35:53.003Z,8.50
2022-12-01T07:36:53.008Z,8.15
2022-12-01T07:37:52.979Z,8.03
2022-12-01T07:38:53.094Z,8.12
2022-12-01T07:39:52.957Z,8.30
2022-12-01T07:40:52.939Z,8.53
2022-12-01T07:41:52.940Z,8.66
2022-12-01T07:42:52.918Z,8.53
2022-12-01T07:43:52.912Z,8.28
2022-12-01T07:44:52.890Z,8.20
2022-12-01T07:45:52.939Z,8.18
2022-12-01T07:46:52.887Z,8.26
2022-12-01T07:47:52.839Z,8.55
2022-12-01T07:48:52.837Z,8.33
2022-12-01T07:49:52.825Z,8.12
2022-12-01T07:50:52.807Z,8.08
2022-12-01T07:51:52.795Z,8.17
2022-12-01T07:52:52.787Z,8.32
2022-12-01T07:53:52.790Z,8.39
2022-12-01T07:54:52.788Z,8.33
2022-12-01T07:55:52.738Z,8.17
2022-12-01T07:56:52.728Z,8.36
2022-12-01T07:57:52.726Z,8.73
2022-12-01T07:58:52.710Z,8.87
2022-12-01T07:59:52.686Z,8.73
2022-12-01T08:00:52.684Z,8.63
2022-12-01T08:01:52.700Z,8.54
2022-12-01T08:02:52.735Z,8.60
2022-12-01T08:03:52.626Z,8.84
2022-12-01T08:04:52.635Z,8.87
2022-12-01T08:05:52.605Z,8.73
2022-12-01T08:06:52.595Z,8.68
2022-12-01T08:07:52.651Z,8.65
2022-12-01T08:08:52.577Z,8.14
2022-12-01T08:09:52.584Z,7.49
2022-12-01T08:10:52.543Z,7.15
2022-12-01T08:11:52.533Z,6.91
2022-12-01T08:12:52.541Z,6.63
2022-12-01T08:13:52.522Z,6.43
2022-12-01T08:14:52.494Z,6.28
2022-12-01T08:15:52.498Z,6.13
2022-12-01T08:16:52.465Z,6.09
2022-12-01T08:17:52.464Z,6.06
2022-12-01T08:18:52.442Z,6.03
2022-12-01T08:19:52.435Z,6.03
2022-12-01T08:20:52.413Z,6.00
2022-12-01T08:21:52.393Z,5.96
2022-12-01T08:22:52.409Z,5.93
2022-12-01T08:23:52.383Z,5.92
2022-12-01T08:24:52.361Z,5.88
2022-12-01T08:25:52.351Z,5.85
2022-12-01T08:26:52.332Z,5.83
2022-12-01T08:27:52.329Z,5.83
2022-12-01T08:28:52.320Z,5.85
2022-12-01T08:29:52.291Z,5.83
2022-12-01T08:30:52.303Z,5.78
2022-12-01T08:31:52.271Z,5.78
2022-12-01T08:32:52.260Z,5.78
2022-12-01T08:33:52.242Z,5.81
2022-12-01T08:34:53.713Z,5.81
2022-12-01T08:35:52.209Z,5.78
2022-12-01T08:36:52.199Z,5.77
2022-12-01T08:37:52.210Z,5.77
2022-12-01T08:38:52.174Z,5.75
2022-12-01T08:39:52.243Z,5.74
2022-12-01T08:40:52.156Z,5.75
2022-12-01T08:41:52.148Z,5.77
2022-12-01T08:42:52.139Z,5.78
2022-12-01T08:44:00.059Z,5.82
2022-12-01T08:44:53.127Z,5.78
2022-12-01T08:45:52.089Z,5.81
2022-12-01T08:46:52.146Z,5.81
2022-12-01T08:47:52.068Z,5.82
2022-12-01T08:48:52.057Z,5.81
2022-12-01T08:49:52.042Z,5.78
2022-12-01T08:50:52.016Z,5.77
2022-12-01T08:51:52.008Z,5.83
2022-12-01T08:52:51.987Z,5.83
2022-12-01T08:53:51.986Z,5.82
2022-12-01T08:54:51.963Z,5.85
2022-12-01T08:55:51.957Z,5.88
2022-12-01T08:56:51.946Z,5.86
2022-12-01T08:57:51.927Z,5.86
2022-12-01T08:58:51.926Z,5.86
2022-12-01T08:59:52.239Z,5.88
2022-12-01T09:00:51.885Z,5.89
2022-12-01T09:01:52.383Z,5.89
2022-12-01T09:02:51.902Z,5.93
2022-12-01T09:03:51.865Z,5.96
2022-12-01T09:04:51.838Z,5.98
2022-12-01T09:05:51.824Z,6.00
2022-12-01T09:06:51.807Z,6.01
2022-12-01T09:07:51.842Z,6.01
2022-12-01T09:08:51.784Z,6.01
2022-12-01T09:09:51.896Z,6.03
2022-12-01T09:10:51.752Z,6.03
2022-12-01T09:11:51.743Z,6.03
2022-12-01T09:12:51.723Z,6.07
2022-12-01T09:13:54.673Z,6.06
2022-12-01T09:14:51.703Z,6.06
2022-12-01T09:15:51.739Z,6.06
2022-12-01T09:16:51.674Z,6.04
2022-12-01T09:17:51.672Z,6.04
2022-12-01T09:18:51.672Z,6.04
2022-12-01T09:19:51.898Z,6.01
2022-12-01T09:20:51.622Z,5.98
2022-12-01T09:21:51.627Z,5.93
2022-12-01T09:22:51.599Z,5.93
2022-12-01T09:23:51.606Z,5.93
2022-12-01T09:24:51.572Z,5.93
2022-12-01T09:25:51.565Z,5.95
2022-12-01T09:26:51.541Z,5.96
2022-12-01T09:27:51.541Z,6.00
2022-12-01T09:28:51.690Z,6.00
2022-12-01T09:29:51.742Z,5.95
2022-12-01T09:30:51.500Z,5.92
2022-12-01T09:31:51.513Z,5.92
2022-12-01T09:32:51.470Z,5.91
2022-12-01T09:33:51.510Z,5.89
2022-12-01T09:34:51.441Z,5.89
2022-12-01T09:35:51.458Z,5.91
2022-12-01T09:36:51.468Z,5.89
2022-12-01T09:37:51.456Z,5.91
2022-12-01T09:38:51.539Z,5.92
2022-12-01T09:39:51.691Z,5.93
2022-12-01T09:40:51.370Z,5.93
2022-12-01T09:41:51.389Z,5.86
2022-12-01T09:42:51.409Z,5.85
2022-12-01T09:43:51.338Z,5.86
2022-12-01T09:44:51.351Z,5.88
2022-12-01T09:45:51.308Z,5.91
2022-12-01T09:46:51.324Z,5.92
2022-12-01T09:47:51.278Z,5.96
2022-12-01T09:48:51.324Z,5.96
2022-12-01T09:49:51.563Z,5.96
2022-12-01T09:50:51.235Z,5.96
2022-12-01T09:51:51.227Z,6.00
2022-12-01T09:52:51.206Z,6.01
2022-12-01T09:53:51.217Z,6.04
2022-12-01T09:54:51.178Z,6.09
2022-12-01T09:55:51.178Z,6.09
2022-12-01T09:56:51.146Z,6.06
2022-12-01T09:57:51.147Z,6.04
2022-12-01T09:58:51.134Z,6.04
2022-12-01T09:59:51.342Z,6.04
2022-12-01T10:00:51.174Z,6.04
2022-12-01T10:01:51.116Z,6.07
2022-12-01T10:02:51.065Z,6.09
2022-12-01T10:03:51.084Z,6.09
2022-12-01T10:04:51.044Z,6.06
2022-12-01T10:06:25.038Z,6.04
2022-12-01T10:06:52.036Z,6.04
2022-12-01T10:07:51.126Z,6.07
2022-12-01T10:08:51.007Z,6.10
2022-12-01T10:09:51.326Z,6.09
2022-12-01T10:10:50.992Z,6.04
2022-12-01T10:11:50.987Z,6.01
2022-12-01T10:12:50.943Z,6.01
2022-12-01T10:13:50.944Z,5.98
2022-12-01T10:14:50.912Z,5.95
2022-12-01T10:15:51.049Z,5.91
2022-12-01T10:16:50.892Z,5.91
2022-12-01T10:17:50.881Z,5.89
2022-12-01T10:18:50.874Z,5.89
2022-12-01T10:19:51.222Z,5.91
2022-12-01T10:20:50.847Z,5.91
2022-12-01T10:21:50.833Z,5.91
2022-12-01T10:22:50.813Z,5.88
2022-12-01T10:23:50.812Z,5.85
2022-12-01T10:24:50.793Z,5.88
2022-12-01T10:25:50.791Z,5.88
2022-12-01T10:26:50.761Z,5.88
2022-12-01T10:27:50.751Z,5.85
2022-12-01T10:28:50.741Z,5.85
2022-12-01T10:29:51.081Z,5.83
2022-12-01T10:30:50.710Z,5.78
2022-12-01T10:31:50.727Z,5.78
2022-12-01T10:32:50.681Z,5.77
2022-12-01T10:33:50.691Z,5.78
2022-12-01T10:34:50.658Z,5.78
2022-12-01T10:35:50.651Z,5.78
2022-12-01T10:36:50.640Z,5.78
2022-12-01T10:37:50.648Z,5.81
2022-12-01T10:38:50.609Z,5.81
2022-12-01T10:39:50.823Z,5.81
2022-12-01T10:40:50.585Z,5.78
2022-12-01T10:41:50.560Z,5.77
2022-12-01T10:42:50.560Z,5.81
2022-12-01T10:43:50.537Z,5.82
2022-12-01T10:44:50.539Z,5.83
2022-12-01T10:45:50.563Z,5.83
2022-12-01T10:46:50.517Z,5.85
2022-12-01T10:47:54.893Z,5.85
2022-12-01T10:48:51.467Z,5.89
2022-12-01T10:49:50.765Z,5.91
2022-12-01T10:50:50.461Z,5.93
2022-12-01T10:51:50.426Z,5.98
2022-12-01T10:52:50.417Z,5.98
2022-12-01T10:53:50.404Z,6.01
2022-12-01T10:54:50.399Z,6.04
2022-12-01T10:55:50.379Z,6.03
2022-12-01T10:56:50.366Z,6.06
2022-12-01T10:57:50.346Z,6.09
2022-12-01T10:58:50.354Z,6.10
2022-12-01T10:59:50.556Z,6.09
2022-12-01T11:01:09.495Z,6.11
2022-12-01T11:01:51.458Z,6.13
2022-12-01T11:02:50.407Z,6.11
2022-12-01T11:03:50.308Z,6.11
2022-12-01T11:04:50.363Z,6.14
2022-12-01T11:05:50.236Z,6.19
2022-12-01T11:06:50.235Z,6.22
2022-12-01T11:07:50.282Z,6.16
2022-12-01T11:08:50.205Z,6.16
2022-12-01T11:09:50.556Z,6.18
2022-12-01T11:10:50.183Z,6.18
2022-12-01T11:11:50.165Z,6.14
2022-12-01T11:12:50.164Z,6.11
2022-12-01T11:13:50.143Z,6.09
2022-12-01T11:14:50.147Z,6.10
2022-12-01T11:15:50.113Z,6.11
2022-12-01T11:16:50.144Z,6.09
2022-12-01T11:17:50.094Z,6.06
2022-12-01T11:18:50.108Z,6.03
2022-12-01T11:19:50.318Z,6.01
2022-12-01T11:20:50.052Z,6.00
2022-12-01T11:21:50.052Z,6.04
2022-12-01T11:22:50.051Z,6.10
2022-12-01T11:23:50.009Z,6.18
2022-12-01T11:24:50.011Z,6.13
2022-12-01T11:25:49.989Z,6.18
2022-12-01T11:26:49.973Z,6.16
2022-12-01T11:27:49.951Z,6.14
2022-12-01T11:28:49.944Z,6.14
2022-12-01T11:29:50.123Z,6.19
2022-12-01T11:30:55.253Z,6.18
2022-12-01T11:31:51.007Z,6.22
2022-12-01T11:32:49.891Z,6.25
2022-12-01T11:33:49.870Z,6.30
2022-12-01T11:34:50.279Z,6.35
2022-12-01T11:35:49.862Z,6.36
2022-12-01T11:36:49.829Z,6.36
2022-12-01T11:38:13.192Z,6.43
2022-12-01T11:38:50.807Z,6.46
2022-12-01T11:39:50.027Z,6.46
2022-12-01T11:40:49.778Z,6.47
2022-12-01T11:41:49.780Z,6.46
2022-12-01T11:42:49.760Z,6.43
2022-12-01T11:44:00.811Z,6.43
2022-12-01T11:44:52.061Z,6.38
2022-12-01T11:45:49.761Z,6.41
2022-12-01T11:46:55.764Z,6.41
2022-12-01T11:47:50.690Z,6.46
2022-12-01T11:48:49.680Z,6.50
2022-12-01T11:49:49.930Z,6.44
2022-12-01T11:50:49.657Z,6.40
2022-12-01T11:51:49.646Z,6.38
2022-12-01T11:52:49.627Z,6.41
2022-12-01T11:53:49.618Z,6.38
2022-12-01T11:54:49.608Z,6.33
2022-12-01T11:55:49.607Z,6.33
2022-12-01T11:56:56.065Z,6.36
2022-12-01T11:57:50.581Z,6.40
2022-12-01T11:58:49.597Z,6.38
2022-12-01T11:59:49.801Z,6.38
2022-12-01T12:00:49.528Z,6.40
2022-12-01T12:01:49.506Z,6.44
2022-12-01T12:02:49.533Z,6.47
2022-12-01T12:03:49.577Z,6.50
2022-12-01T12:04:49.470Z,6.50
2022-12-01T12:05:49.475Z,6.54
2022-12-01T12:06:49.444Z,6.48
2022-12-01T12:07:49.511Z,6.46
2022-12-01T12:08:49.483Z,6.44
2022-12-01T12:09:49.646Z,6.43
2022-12-01T12:10:49.483Z,6.38
2022-12-01T12:11:49.384Z,6.36
2022-12-01T12:12:49.363Z,6.35
2022-12-01T12:13:49.395Z,6.35
2022-12-01T12:14:49.345Z,6.35
2022-12-01T12:16:49.314Z,6.35
2022-12-01T12:17:49.370Z,6.36
2022-12-01T12:18:49.291Z,6.36
2022-12-01T12:20:50.271Z,6.32
2022-12-01T12:21:49.254Z,6.30
2022-12-01T12:22:54.972Z,6.30
2022-12-01T12:23:50.221Z,6.30
2022-12-01T12:24:49.211Z,6.30
2022-12-01T12:25:49.212Z,6.30
2022-12-01T12:26:49.182Z,6.32
2022-12-01T12:27:49.172Z,6.32
2022-12-01T12:28:49.151Z,6.32
2022-12-01T12:29:49.480Z,6.30
2022-12-01T12:30:49.238Z,6.33
2022-12-01T12:31:49.120Z,6.33
2022-12-01T12:32:49.101Z,6.32
2022-12-01T12:33:49.090Z,6.30
2022-12-01T12:34:49.073Z,6.28
2022-12-01T12:35:49.070Z,6.28
2022-12-01T12:36:49.048Z,6.25
2022-12-01T12:37:49.050Z,6.25
2022-12-01T12:38:49.022Z,6.28
2022-12-01T12:39:49.374Z,6.29
2022-12-01T12:40:49.008Z,6.30
2022-12-01T12:41:48.993Z,6.32
2022-12-01T12:42:48.970Z,6.30
2022-12-01T12:43:48.960Z,6.19
2022-12-01T12:44:48.948Z,6.14
2022-12-01T12:45:48.977Z,6.18
2022-12-01T12:46:49.000Z,6.14
2022-12-01T12:47:48.906Z,6.13
2022-12-01T12:49:18.131Z,6.14
2022-12-01T12:49:50.189Z,6.13
2022-12-01T12:50:48.878Z,6.16
2022-12-01T12:51:48.867Z,6.19
2022-12-01T12:52:48.843Z,6.22
2022-12-01T12:53:48.905Z,6.21
2022-12-01T12:54:48.811Z,6.25
2022-12-01T12:55:48.808Z,6.26
2022-12-01T12:56:48.787Z,6.28
2022-12-01T12:57:48.780Z,6.29
2022-12-01T12:58:48.757Z,6.30
2022-12-01T12:59:49.075Z,6.32
2022-12-01T13:00:48.737Z,6.30
2022-12-01T13:01:48.800Z,6.32
2022-12-01T13:02:48.758Z,6.35
2022-12-01T13:03:48.696Z,6.33
2022-12-01T13:04:48.675Z,6.33
2022-12-01T13:05:48.703Z,6.32
2022-12-01T13:06:48.666Z,6.29
2022-12-01T13:07:48.705Z,6.30
2022-12-01T13:08:48.646Z,6.28
2022-12-01T13:09:48.808Z,6.30
2022-12-01T13:10:48.604Z,6.35
2022-12-01T13:11:48.606Z,6.36
2022-12-01T13:12:48.583Z,6.40
2022-12-01T13:13:48.565Z,6.41
2022-12-01T13:14:48.554Z,6.43
2022-12-01T13:15:48.582Z,6.41
2022-12-01T13:16:48.534Z,6.43
2022-12-01T13:17:48.517Z,6.44
2022-12-01T13:18:48.504Z,6.41
2022-12-01T13:19:48.939Z,6.40
2022-12-01T13:20:48.473Z,6.35
2022-12-01T13:21:48.515Z,6.36
2022-12-01T13:22:48.443Z,6.40
2022-12-01T13:23:48.526Z,6.40
2022-12-01T13:24:48.432Z,6.36
2022-12-01T13:25:48.434Z,6.35
2022-12-01T13:26:48.403Z,6.35
2022-12-01T13:27:48.383Z,6.32
2022-12-01T13:28:48.372Z,6.30
2022-12-01T13:29:48.456Z,6.30
2022-12-01T13:30:48.382Z,6.28
2022-12-01T13:31:48.412Z,6.25
2022-12-01T13:32:48.311Z,6.25
2022-12-01T13:33:48.311Z,6.26
2022-12-01T13:34:48.289Z,6.26
2022-12-01T13:36:01.464Z,6.29
2022-12-01T13:36:49.281Z,6.30
2022-12-01T13:37:48.250Z,6.32
2022-12-01T13:38:48.251Z,6.35
2022-12-01T13:39:48.665Z,6.36
2022-12-01T13:40:48.210Z,6.41
2022-12-01T13:41:48.219Z,6.46
2022-12-01T13:42:48.180Z,6.46
2022-12-01T13:43:48.174Z,6.47
2022-12-01T13:44:48.503Z,6.48
2022-12-01T13:45:48.149Z,6.48
2022-12-01T13:46:48.178Z,6.46
2022-12-01T13:47:48.134Z,6.44
2022-12-01T13:48:48.112Z,6.41
2022-12-01T13:49:48.278Z,6.38
2022-12-01T13:50:48.079Z,6.40
2022-12-01T13:51:48.079Z,6.36
2022-12-01T13:52:48.059Z,6.36
2022-12-01T13:53:48.048Z,6.38
2022-12-01T13:54:48.028Z,6.35
2022-12-01T13:55:48.020Z,6.29
2022-12-01T13:56:48.017Z,6.30
2022-12-01T13:57:48.016Z,6.29
2022-12-01T13:58:47.969Z,6.29
2022-12-01T13:59:48.359Z,6.30
2022-12-01T14:00:48.020Z,6.30
2022-12-01T14:01:48.042Z,6.32
2022-12-01T14:02:47.961Z,6.32
2022-12-01T14:03:47.926Z,6.32
2022-12-01T14:04:48.156Z,6.32
2022-12-01T14:05:47.887Z,6.32
2022-12-01T14:06:47.894Z,6.30
2022-12-01T14:07:47.918Z,6.32
2022-12-01T14:08:47.846Z,6.29
2022-12-01T14:09:47.835Z,6.28
2022-12-01T14:10:47.920Z,6.26
2022-12-01T14:11:47.816Z,6.21
2022-12-01T14:12:47.803Z,6.25
2022-12-01T14:13:47.783Z,6.22
2022-12-01T14:14:47.780Z,6.25
2022-12-01T14:15:47.800Z,6.28
2022-12-01T14:16:47.786Z,6.28
2022-12-01T14:17:47.767Z,6.28
2022-12-01T14:18:47.716Z,6.28
2022-12-01T14:19:47.717Z,6.26
2022-12-01T14:20:47.686Z,6.26
2022-12-01T14:21:47.674Z,6.25
2022-12-01T14:22:47.673Z,6.26
2022-12-01T14:23:47.658Z,6.25
2022-12-01T14:24:48.008Z,6.25
2022-12-01T14:25:47.623Z,6.21
2022-12-01T14:26:47.613Z,6.21
2022-12-01T14:27:47.613Z,6.19
2022-12-01T14:28:47.580Z,6.21
2022-12-01T14:29:47.573Z,6.19
2022-12-01T14:30:47.572Z,6.16
2022-12-01T14:31:47.613Z,6.16
2022-12-01T14:32:47.542Z,6.13
2022-12-01T14:33:47.512Z,6.11
2022-12-01T14:34:47.729Z,6.09
2022-12-01T14:35:47.493Z,6.09
2022-12-01T14:36:47.492Z,6.10
2022-12-01T14:37:47.470Z,6.07
2022-12-01T14:38:47.459Z,6.07
2022-12-01T14:39:47.440Z,6.06
2022-12-01T14:40:47.423Z,6.03
2022-12-01T14:41:47.413Z,6.03
2022-12-01T14:42:47.412Z,6.00
2022-12-01T14:43:47.382Z,5.98
2022-12-01T14:44:47.632Z,6.01
2022-12-01T14:45:47.369Z,6.01
2022-12-01T14:46:47.373Z,6.01
2022-12-01T14:47:47.351Z,6.00
2022-12-01T14:48:47.338Z,5.98
2022-12-01T14:49:47.320Z,5.96
2022-12-01T14:50:47.295Z,5.95
2022-12-01T14:51:47.305Z,5.95
2022-12-01T14:52:47.281Z,5.95
2022-12-01T14:53:47.259Z,5.93
2022-12-01T14:54:47.578Z,5.95
2022-12-01T14:55:47.252Z,5.98
2022-12-01T14:56:47.219Z,5.98
2022-12-01T14:57:47.222Z,5.96
2022-12-01T14:58:47.188Z,5.98
2022-12-01T14:59:47.181Z,5.96
2022-12-01T15:00:47.207Z,5.93
2022-12-01T15:01:47.222Z,5.95
2022-12-01T15:02:47.147Z,5.93
2022-12-01T15:03:47.135Z,5.91
2022-12-01T15:04:47.237Z,5.86
2022-12-01T15:05:47.107Z,5.85
2022-12-01T15:06:47.086Z,5.82
2022-12-01T15:07:47.226Z,5.81
2022-12-01T15:09:10.549Z,5.82
2022-12-01T15:09:48.105Z,5.83
2022-12-01T15:10:47.026Z,5.83
2022-12-01T15:11:47.034Z,5.82
2022-12-01T15:12:47.025Z,5.78
2022-12-01T15:13:46.995Z,5.77
2022-12-01T15:14:47.179Z,5.75
2022-12-01T15:15:46.966Z,5.73
2022-12-01T15:16:46.985Z,5.74
2022-12-01T15:17:46.946Z,5.73
2022-12-01T15:18:46.935Z,5.73
2022-12-01T15:19:47.037Z,5.70
2022-12-01T15:20:47.986Z,5.71
2022-12-01T15:21:46.894Z,5.68
2022-12-01T15:22:46.873Z,5.67
2022-12-01T15:23:46.886Z,5.67
2022-12-01T15:24:47.072Z,5.67
2022-12-01T15:25:46.836Z,5.67
2022-12-01T15:26:46.824Z,5.67
2022-12-01T15:27:46.813Z,5.67
2022-12-01T15:28:46.833Z,5.66
2022-12-01T15:29:46.978Z,5.64
2022-12-01T15:30:46.790Z,5.64
2022-12-01T15:31:46.826Z,5.64
2022-12-01T15:32:46.744Z,5.63
2022-12-01T15:33:46.743Z,5.57
2022-12-01T15:34:46.722Z,5.56
2022-12-01T15:35:46.710Z,5.55
2022-12-01T15:36:46.701Z,5.55
2022-12-01T15:37:46.685Z,5.53
2022-12-01T15:38:46.691Z,5.50
2022-12-01T15:39:46.661Z,5.49
2022-12-01T15:41:47.622Z,5.46
2022-12-01T15:42:46.610Z,5.45
2022-12-01T15:43:46.611Z,5.45
2022-12-01T15:44:46.588Z,5.41
2022-12-01T15:45:46.668Z,5.43
2022-12-01T15:46:46.569Z,5.41
2022-12-01T15:47:46.570Z,5.40
2022-12-01T15:48:46.549Z,5.40
2022-12-01T15:49:46.529Z,5.40
2022-12-01T15:50:46.728Z,5.40
2022-12-01T15:51:46.500Z,5.38
2022-12-01T15:52:46.489Z,5.38
2022-12-01T15:53:46.478Z,5.35
2022-12-01T15:54:46.461Z,5.35
2022-12-01T15:55:46.448Z,5.32
2022-12-01T15:56:46.427Z,5.34
2022-12-01T15:57:46.427Z,5.34
2022-12-01T15:58:46.420Z,5.35
2022-12-01T15:59:46.396Z,5.34
2022-12-01T16:00:46.421Z,5.35
2022-12-01T16:01:46.365Z,5.34
2022-12-01T16:02:47.042Z,5.34
2022-12-01T16:03:46.337Z,5.30
2022-12-01T16:04:46.337Z,5.30
2022-12-01T16:05:46.318Z,5.30
2022-12-01T16:06:46.295Z,5.30
2022-12-01T16:08:47.298Z,5.30
2022-12-01T16:09:46.265Z,5.28
2022-12-01T16:10:46.238Z,5.30
2022-12-01T16:11:46.242Z,5.27
2022-12-01T16:12:46.215Z,5.27
2022-12-01T16:13:46.214Z,5.27
2022-12-01T16:14:46.204Z,5.30
2022-12-01T16:15:46.188Z,5.28
2022-12-01T16:16:46.256Z,5.28
2022-12-01T16:17:46.153Z,5.27
2022-12-01T16:18:46.141Z,5.25
2022-12-01T16:19:46.168Z,5.27
2022-12-01T16:20:46.116Z,5.23
2022-12-01T16:21:46.115Z,5.22
2022-12-01T16:22:46.093Z,5.22
2022-12-01T16:23:46.076Z,5.20
2022-12-01T16:24:46.074Z,5.17
2022-12-01T16:25:46.052Z,5.17
2022-12-01T16:26:46.033Z,5.17
2022-12-01T16:27:46.025Z,5.16
2022-12-01T16:28:46.003Z,5.17
2022-12-01T16:29:46.013Z,5.20
2022-12-01T16:30:46.005Z,5.22
2022-12-01T16:32:12.755Z,5.20
2022-12-01T16:32:46.950Z,5.20
2022-12-01T16:33:45.941Z,5.19
2022-12-01T16:34:56.969Z,5.16
2022-12-01T16:35:46.922Z,5.16
2022-12-01T16:36:45.907Z,5.14
2022-12-01T16:37:45.896Z,5.12
2022-12-01T16:38:45.889Z,5.13
2022-12-01T16:39:45.882Z,5.13
2022-12-01T16:40:45.850Z,5.13
2022-12-01T16:41:45.900Z,5.13
2022-12-01T16:42:45.823Z,5.14
2022-12-01T16:44:05.398Z,5.13
2022-12-01T16:44:46.814Z,5.12
2022-12-01T16:45:45.835Z,5.13
2022-12-01T16:46:45.775Z,5.12
2022-12-01T16:47:45.767Z,5.10
2022-12-01T16:48:45.740Z,5.09
2022-12-01T16:49:45.737Z,5.10
2022-12-01T16:50:45.708Z,5.09
2022-12-01T16:52:11.218Z,5.12
2022-12-01T16:52:46.690Z,5.13
2022-12-01T16:53:50.746Z,5.12
2022-12-01T16:54:46.860Z,5.10
2022-12-01T16:55:45.653Z,5.09
2022-12-01T16:56:45.638Z,5.07
2022-12-01T16:57:45.627Z,5.09
2022-12-01T16:58:45.616Z,5.09
2022-12-01T16:59:45.615Z,5.05
2022-12-01T17:00:45.596Z,5.05
2022-12-01T17:01:45.686Z,5.05
2022-12-01T17:02:45.623Z,5.07
2022-12-01T17:03:45.545Z,5.05
2022-12-01T17:04:45.543Z,5.02
2022-12-01T17:05:45.514Z,5.04
2022-12-01T17:06:45.503Z,5.04
2022-12-01T17:07:45.540Z,5.04
2022-12-01T17:08:45.472Z,5.02
2022-12-01T17:09:45.474Z,5.02
2022-12-01T17:10:45.446Z,5.01
2022-12-01T17:11:45.435Z,5.01
2022-12-01T17:12:45.422Z,5.01
2022-12-01T17:13:45.403Z,5.01
2022-12-01T17:14:45.410Z,5.02
2022-12-01T17:15:45.430Z,5.02
2022-12-01T17:16:45.365Z,5.01
2022-12-01T17:17:45.380Z,5.02
2022-12-01T17:18:45.332Z,5.01
2022-12-01T17:19:45.344Z,5.01
2022-12-01T17:20:45.349Z,4.99
2022-12-01T17:21:45.301Z,4.96
2022-12-01T17:22:45.287Z,4.96
2022-12-01T17:23:45.273Z,4.95
2022-12-01T17:24:45.259Z,4.95
2022-12-01T17:25:45.264Z,4.94
2022-12-01T17:26:45.231Z,4.94
2022-12-01T17:27:45.221Z,4.94
2022-12-01T17:28:45.213Z,4.94
2022-12-01T17:29:46.454Z,4.94
2022-12-01T17:30:45.222Z,4.94
2022-12-01T17:31:45.204Z,4.92
2022-12-01T17:32:45.160Z,4.94
2022-12-01T17:33:45.140Z,4.96
2022-12-01T17:34:45.141Z,4.95
2022-12-01T17:35:45.128Z,4.94
2022-12-01T17:36:45.100Z,4.92
2022-12-01T17:37:45.079Z,4.89
2022-12-01T17:38:45.092Z,4.89
2022-12-01T17:39:45.058Z,4.91
2022-12-01T17:40:45.099Z,4.94
2022-12-01T17:41:45.028Z,4.91
2022-12-01T17:42:50.229Z,4.91
2022-12-01T17:43:45.999Z,4.86
2022-12-01T17:44:44.990Z,4.86
2022-12-01T17:45:44.988Z,4.83
2022-12-01T17:46:45.001Z,4.80
2022-12-01T17:47:45.201Z,4.80
2022-12-01T17:48:44.944Z,4.79
2022-12-01T17:49:44.927Z,4.77
2022-12-01T17:50:44.927Z,4.76
2022-12-01T17:51:44.994Z,4.76
2022-12-01T17:52:44.886Z,4.77
2022-12-01T17:53:44.874Z,4.77
2022-12-01T17:54:44.857Z,4.79
2022-12-01T17:55:44.865Z,4.75
2022-12-01T17:56:44.833Z,4.76
2022-12-01T17:57:44.830Z,4.75
2022-12-01T17:58:44.808Z,4.76
2022-12-01T17:59:44.785Z,4.75
2022-12-01T18:00:44.786Z,4.72
2022-12-01T18:01:44.809Z,4.72
2022-12-01T18:02:44.921Z,4.72
2022-12-01T18:03:44.842Z,4.72
2022-12-01T18:04:44.777Z,4.73
2022-12-01T18:05:44.732Z,4.70
2022-12-01T18:06:46.875Z,4.70
2022-12-01T18:07:45.737Z,4.70
2022-12-01T18:08:44.693Z,4.67
2022-12-01T18:09:44.683Z,4.70
2022-12-01T18:10:44.664Z,4.67
2022-12-01T18:11:44.632Z,4.67
2022-12-01T18:12:44.624Z,4.69
2022-12-01T18:13:44.602Z,4.69
2022-12-01T18:14:44.594Z,4.70
2022-12-01T18:15:44.650Z,4.72
2022-12-01T18:16:44.581Z,4.69
2022-12-01T18:17:44.552Z,4.69
2022-12-01T18:18:44.550Z,4.67
2022-12-01T18:19:44.521Z,4.67
2022-12-01T18:20:44.531Z,4.65
2022-12-01T18:21:44.510Z,4.64
2022-12-01T18:22:44.492Z,4.64
2022-12-01T18:23:44.481Z,4.64
2022-12-01T18:24:44.460Z,4.62
2022-12-01T18:25:44.460Z,4.61
2022-12-01T18:26:44.449Z,4.64
2022-12-01T18:27:44.430Z,4.64
2022-12-01T18:28:44.410Z,4.65
2022-12-01T18:29:44.399Z,4.62
2022-12-01T18:30:44.413Z,4.62
2022-12-01T18:31:44.428Z,4.62
2022-12-01T18:32:44.369Z,4.61
2022-12-01T18:33:44.379Z,4.64
2022-12-01T18:34:44.339Z,4.64
2022-12-01T18:35:44.327Z,4.64
2022-12-01T18:36:44.307Z,4.59
2022-12-01T18:37:44.297Z,4.61
2022-12-01T18:38:44.279Z,4.64
2022-12-01T18:39:44.271Z,4.61
2022-12-01T18:40:44.257Z,4.61
2022-12-01T18:41:44.251Z,4.59
2022-12-01T18:42:44.230Z,4.62
2022-12-01T18:43:44.306Z,4.64
2022-12-01T18:44:44.235Z,4.62
2022-12-01T18:45:44.186Z,4.61
2022-12-01T18:46:44.234Z,4.58
2022-12-01T18:47:44.155Z,4.57
2022-12-01T18:48:44.147Z,4.55
2022-12-01T18:49:44.133Z,4.55
2022-12-01T18:50:44.120Z,4.55
2022-12-01T18:51:44.116Z,4.55
2022-12-01T18:52:44.096Z,4.55